createdAt,value
2019-05-14T00:01:17.346Z,10.07
2019-05-14T00:05:23.619Z,10.09
2019-05-14T00:09:27.967Z,10.08
2019-05-14T00:13:32.369Z,10.07
2019-05-14T00:17:36.649Z,10.03
2019-05-14T00:21:42.363Z,10.03
2019-05-14T00:25:46.845Z,9.95
2019-05-14T00:29:51.773Z,9.94
2019-05-14T00:33:56.216Z,9.94
2019-05-14T00:38:01.281Z,9.92
2019-05-14T00:42:05.815Z,9.91
2019-05-14T00:46:11.805Z,9.91
2019-05-14T00:50:16.492Z,9.90
2019-05-14T00:54:21.529Z,9.89
2019-05-14T00:58:25.964Z,9.90
2019-05-14T01:02:31.876Z,9.87
2019-05-14T01:06:36.301Z,9.86
2019-05-14T01:10:41.757Z,9.83
2019-05-14T01:14:46.993Z,9.78
2019-05-14T01:18:51.460Z,9.75
2019-05-14T01:22:55.720Z,9.70
2019-05-14T01:27:01.607Z,9.69
2019-05-14T01:31:06.221Z,9.63
2019-05-14T01:35:13.566Z,9.61
2019-05-14T01:39:23.909Z,9.56
2019-05-14T01:43:28.513Z,9.45
2019-05-14T01:47:35.455Z,9.42
2019-05-14T01:51:42.127Z,9.39
2019-05-14T01:55:45.549Z,9.38
2019-05-14T01:59:51.639Z,9.36
2019-05-14T02:03:55.743Z,9.33
2019-05-14T02:08:01.759Z,9.26
2019-05-14T02:12:05.978Z,9.22
2019-05-14T02:16:13.067Z,9.15
2019-05-14T02:20:16.346Z,9.11
2019-05-14T02:24:21.780Z,9.12
2019-05-14T02:28:26.274Z,9.06
2019-05-14T02:32:30.522Z,8.99
2019-05-14T02:36:34.818Z,8.95
2019-05-14T02:40:40.399Z,8.90
2019-05-14T02:44:44.894Z,8.87
2019-05-14T02:48:49.366Z,8.84
2019-05-14T02:52:53.751Z,8.78
2019-05-14T02:56:59.896Z,8.72
2019-05-14T03:01:03.956Z,8.69
2019-05-14T03:05:09.812Z,8.63
2019-05-14T03:09:14.435Z,8.59
2019-05-14T03:13:20.332Z,8.58
2019-05-14T03:17:24.822Z,8.56
2019-05-14T03:21:30.444Z,8.52
2019-05-14T03:25:34.873Z,8.53
2019-05-14T03:29:40.203Z,8.56
2019-05-14T03:33:45.134Z,8.50
2019-05-14T03:37:50.030Z,8.44
2019-05-14T03:41:54.383Z,8.40
2019-05-14T03:45:59.524Z,8.37
2019-05-14T03:50:04.082Z,8.35
2019-05-14T03:54:12.719Z,8.32
2019-05-14T03:58:14.973Z,8.28
2019-05-14T04:02:20.108Z,8.27
2019-05-14T04:06:30.054Z,8.28
2019-05-14T04:10:34.973Z,8.32
2019-05-14T04:14:43.137Z,8.29
2019-05-14T04:18:50.432Z,8.25
2019-05-14T04:23:00.069Z,8.14
2019-05-14T04:27:09.284Z,8.11
2019-05-14T04:31:13.428Z,8.10
2019-05-14T04:35:20.120Z,8.08
2019-05-14T04:39:23.837Z,8.06
2019-05-14T04:43:29.364Z,8.03
2019-05-14T04:47:37.429Z,8.02
2019-05-14T04:51:39.985Z,8.05
2019-05-14T04:55:44.243Z,8.04
2019-05-14T04:59:49.405Z,8.04
2019-05-14T05:03:53.896Z,8.05
2019-05-14T05:07:59.663Z,8.04
2019-05-14T05:12:04.119Z,8.02
2019-05-14T05:16:10.010Z,8.03
2019-05-14T05:20:14.718Z,8.06
2019-05-14T05:24:19.019Z,8.13
2019-05-14T05:28:23.351Z,8.19
2019-05-14T05:32:28.584Z,8.13
2019-05-14T05:36:33.020Z,8.12
2019-05-14T05:40:39.149Z,8.19
2019-05-14T05:44:43.188Z,8.20
2019-05-14T05:48:48.231Z,8.28
2019-05-14T05:52:53.824Z,8.30
2019-05-14T05:56:58.544Z,8.28
2019-05-14T06:01:02.771Z,8.26
2019-05-14T06:05:08.058Z,8.28
2019-05-14T06:09:12.484Z,8.33
2019-05-14T06:13:18.283Z,8.38
2019-05-14T06:17:22.670Z,8.42
2019-05-14T06:21:29.225Z,8.40
2019-05-14T06:25:32.824Z,8.43
2019-05-14T06:29:38.299Z,8.53
2019-05-14T06:33:42.748Z,8.57
2019-05-14T06:37:49.040Z,8.63
2019-05-14T06:41:52.909Z,8.63
2019-05-14T06:45:58.553Z,8.63
2019-05-14T06:50:03.462Z,8.67
2019-05-14T06:54:09.236Z,8.72
2019-05-14T06:58:13.551Z,8.80
2019-05-14T07:02:19.412Z,8.85
2019-05-14T07:06:23.891Z,8.89
2019-05-14T07:10:28.813Z,8.82
2019-05-14T07:14:33.076Z,8.84
2019-05-14T07:18:46.543Z,8.89
2019-05-14T07:22:43.303Z,8.92
2019-05-14T07:26:49.430Z,9.05
2019-05-14T07:30:53.560Z,9.11
2019-05-14T07:34:59.620Z,9.19
2019-05-14T07:39:09.066Z,9.21
2019-05-14T07:43:11.543Z,9.26
2019-05-14T07:47:15.785Z,9.37
2019-05-14T07:51:20.319Z,9.46
2019-05-14T07:55:24.932Z,9.55
2019-05-14T07:59:29.356Z,9.62
2019-05-14T08:03:33.577Z,9.63
2019-05-14T08:07:38.787Z,9.68
2019-05-14T08:11:43.267Z,9.75
2019-05-14T08:15:49.021Z,9.79
2019-05-14T08:19:53.451Z,9.84
2019-05-14T08:23:59.243Z,9.89
2019-05-14T08:28:03.648Z,9.97
2019-05-14T08:32:09.012Z,10.00
2019-05-14T08:36:13.384Z,10.04
2019-05-14T08:40:20.874Z,10.08
2019-05-14T08:44:23.769Z,10.12
2019-05-14T08:48:29.587Z,10.22
2019-05-14T08:52:34.395Z,10.25
2019-05-14T08:56:39.078Z,10.24
2019-05-14T09:00:43.358Z,10.32
2019-05-14T09:04:53.810Z,10.40
2019-05-14T09:08:53.644Z,10.41
2019-05-14T09:12:58.399Z,10.44
2019-05-14T09:17:02.917Z,10.41
2019-05-14T09:21:08.686Z,10.41
2019-05-14T09:25:14.135Z,10.47
2019-05-14T09:29:25.507Z,10.53
2019-05-14T09:33:25.315Z,10.52
2019-05-14T09:37:29.523Z,10.60
2019-05-14T09:41:33.830Z,10.69
2019-05-14T09:45:38.845Z,10.76
2019-05-14T09:49:43.238Z,10.81
2019-05-14T09:53:48.870Z,10.79
2019-05-14T09:57:53.465Z,10.82
2019-05-14T10:01:58.588Z,10.80
2019-05-14T10:06:03.056Z,10.85
2019-05-14T10:10:08.154Z,10.91
2019-05-14T10:14:12.428Z,11.02
2019-05-14T10:18:18.828Z,11.11
2019-05-14T10:22:22.652Z,11.14
2019-05-14T10:26:28.874Z,11.13
2019-05-14T10:30:33.009Z,11.14
2019-05-14T10:34:37.595Z,11.11
2019-05-14T10:38:41.822Z,11.00
2019-05-14T10:42:49.242Z,10.96
2019-05-14T10:46:52.065Z,10.90
2019-05-14T10:51:02.870Z,10.89
2019-05-14T10:55:02.587Z,10.90
2019-05-14T10:59:09.314Z,10.91
2019-05-14T11:03:12.771Z,10.91
2019-05-14T11:07:18.597Z,10.93
2019-05-14T11:11:23.078Z,10.98
2019-05-14T11:15:28.497Z,11.03
2019-05-14T11:19:32.835Z,11.08
2019-05-14T11:23:38.685Z,11.13
2019-05-14T11:27:43.073Z,11.18
2019-05-14T11:31:48.451Z,11.19
2019-05-14T11:35:52.989Z,11.20
2019-05-14T11:39:58.123Z,11.18
2019-05-14T11:44:02.484Z,11.14
2019-05-14T11:48:08.802Z,11.12
2019-05-14T11:52:12.878Z,11.07
2019-05-14T11:56:19.454Z,11.02
2019-05-14T12:00:25.956Z,10.92
2019-05-14T12:04:29.742Z,10.71
2019-05-14T12:08:33.986Z,10.67
2019-05-14T12:12:38.271Z,10.61
2019-05-14T12:16:42.595Z,10.55
2019-05-14T12:20:49.697Z,10.52
2019-05-14T12:24:52.789Z,10.54
2019-05-14T12:28:59.424Z,10.61
2019-05-14T12:33:03.031Z,10.72
2019-05-14T12:37:09.153Z,10.82
2019-05-14T12:41:13.639Z,10.82
2019-05-14T12:45:19.046Z,10.70
2019-05-14T12:49:23.609Z,10.63
2019-05-14T12:53:28.746Z,10.62
2019-05-14T12:57:33.161Z,10.62
2019-05-14T13:01:37.920Z,10.64
2019-05-14T13:05:42.160Z,10.63
2019-05-14T13:09:48.910Z,10.61
2019-05-14T13:13:52.618Z,10.58
2019-05-14T13:17:57.067Z,10.64
2019-05-14T13:22:13.200Z,10.58
2019-05-14T13:26:10.502Z,10.47
2019-05-14T13:30:14.267Z,10.36
2019-05-14T13:34:19.485Z,10.34
2019-05-14T13:38:24.009Z,10.42
2019-05-14T13:42:29.529Z,10.45
2019-05-14T13:46:34.089Z,10.54
2019-05-14T13:50:40.003Z,10.62
2019-05-14T13:54:44.301Z,10.73
2019-05-14T13:58:49.107Z,10.78
2019-05-14T14:02:53.381Z,10.72
2019-05-14T14:06:59.087Z,10.61
2019-05-14T14:11:04.423Z,10.54
2019-05-14T14:15:09.907Z,10.55
2019-05-14T14:19:14.227Z,10.50
2019-05-14T14:23:26.413Z,10.45
2019-05-14T14:27:24.577Z,10.34
2019-05-14T14:31:28.883Z,10.26
2019-05-14T14:35:33.481Z,10.28
2019-05-14T14:39:37.736Z,10.26
2019-05-14T14:43:44.102Z,10.28
2019-05-14T14:47:49.735Z,10.29
2019-05-14T14:51:54.043Z,10.26
2019-05-14T14:56:00.358Z,10.26
2019-05-14T15:00:04.902Z,10.21
2019-05-14T15:04:13.527Z,10.14
2019-05-14T15:08:15.141Z,10.14
2019-05-14T15:12:19.990Z,10.13
2019-05-14T15:16:24.422Z,10.08
2019-05-14T15:20:29.144Z,10.00
2019-05-14T15:24:33.346Z,9.98
2019-05-14T15:28:38.696Z,9.92
2019-05-14T15:32:43.173Z,9.90
2019-05-14T15:36:49.326Z,9.94
2019-05-14T15:40:53.487Z,9.86
2019-05-14T15:44:59.879Z,9.82
2019-05-14T15:49:03.686Z,9.80
2019-05-14T15:53:10.878Z,9.73
2019-05-14T15:57:13.985Z,9.63
2019-05-14T16:01:19.351Z,9.57
2019-05-14T16:05:23.709Z,9.51
2019-05-14T16:09:28.915Z,9.39
2019-05-14T16:13:33.559Z,9.32
2019-05-14T16:17:48.129Z,9.25
2019-05-14T16:21:43.991Z,9.22
2019-05-14T16:25:48.469Z,9.26
2019-05-14T16:29:52.756Z,9.41
2019-05-14T16:33:57.032Z,9.49
2019-05-14T16:38:01.267Z,9.54
2019-05-14T16:42:05.623Z,9.45
2019-05-14T16:46:10.253Z,9.41
2019-05-14T16:50:15.012Z,9.34
2019-05-14T16:54:19.246Z,9.29
2019-05-14T16:58:23.589Z,9.26
2019-05-14T17:02:29.584Z,9.25
2019-05-14T17:06:34.950Z,9.25
2019-05-14T17:10:39.298Z,9.27
2019-05-14T17:14:43.760Z,9.27
2019-05-14T17:18:49.011Z,9.22
2019-05-14T17:22:53.624Z,9.15
2019-05-14T17:26:58.343Z,9.16
2019-05-14T17:31:03.057Z,9.15
2019-05-14T17:35:10.680Z,9.16
2019-05-14T17:39:14.987Z,9.15
2019-05-14T17:43:22.842Z,9.10
2019-05-14T17:47:25.300Z,9.07
2019-05-14T17:51:29.648Z,9.05
2019-05-14T17:55:46.396Z,9.04
2019-05-14T17:59:40.049Z,9.00
2019-05-14T18:08:39.772Z,8.83
2019-05-14T18:12:44.044Z,8.71
2019-05-14T18:16:50.684Z,8.70
2019-05-14T18:20:54.924Z,8.65
2019-05-14T18:24:59.572Z,8.57
2019-05-14T18:29:04.611Z,8.57
2019-05-14T18:33:09.548Z,8.52
2019-05-14T18:37:14.079Z,8.48
2019-05-14T18:41:18.974Z,8.51
2019-05-14T18:45:23.983Z,8.56
2019-05-14T18:49:28.857Z,8.53
2019-05-14T18:53:33.476Z,8.46
2019-05-14T18:57:38.509Z,8.42
2019-05-14T19:01:42.949Z,8.38
2019-05-14T19:05:48.264Z,8.41
2019-05-14T19:09:52.978Z,8.38
2019-05-14T19:13:57.246Z,8.41
2019-05-14T19:18:02.769Z,8.41
2019-05-14T19:22:07.786Z,8.39
2019-05-14T19:26:12.704Z,8.38
2019-05-14T19:30:19.129Z,8.36
2019-05-14T19:34:25.155Z,8.28
2019-05-14T19:38:29.425Z,8.28
2019-05-14T19:42:34.049Z,8.26
2019-05-14T19:46:38.759Z,8.26
2019-05-14T19:50:43.326Z,8.25
2019-05-14T19:54:48.973Z,8.25
2019-05-14T19:58:53.307Z,8.23
2019-05-14T20:02:58.248Z,8.24
2019-05-14T20:07:02.527Z,8.22
2019-05-14T20:11:06.778Z,8.20
2019-05-14T20:15:11.113Z,8.17
2019-05-14T20:19:15.738Z,8.16
2019-05-14T20:23:20.092Z,8.15
2019-05-14T20:27:24.319Z,8.16
2019-05-14T20:31:29.683Z,8.17
2019-05-14T20:35:34.988Z,8.12
2019-05-14T20:39:39.402Z,8.11
2019-05-14T20:43:43.931Z,8.11
2019-05-14T20:47:48.192Z,8.11
2019-05-14T20:51:52.433Z,8.12
2019-05-14T20:55:58.819Z,8.11
2019-05-14T21:00:02.700Z,8.09
2019-05-14T21:04:09.031Z,8.06
2019-05-14T21:08:13.852Z,8.06
2019-05-14T21:12:18.886Z,8.03
2019-05-14T21:16:23.327Z,8.00
2019-05-14T21:20:28.518Z,8.03
2019-05-14T21:24:32.720Z,8.01
2019-05-14T21:28:39.227Z,8.02
2019-05-14T21:32:43.026Z,8.01
2019-05-14T21:36:47.366Z,8.01
2019-05-14T21:40:51.936Z,7.98
2019-05-14T21:44:58.423Z,7.99
2019-05-14T21:49:02.296Z,7.99
2019-05-14T21:53:08.451Z,7.95
2019-05-14T21:57:13.272Z,7.94
2019-05-14T22:01:18.811Z,7.94
2019-05-14T22:05:23.189Z,7.91
2019-05-14T22:09:28.478Z,7.92
2019-05-14T22:13:32.834Z,7.90
2019-05-14T22:17:38.242Z,7.90
2019-05-14T22:21:42.616Z,7.91
2019-05-14T22:25:48.714Z,7.90
2019-05-14T22:29:53.028Z,7.87
2019-05-14T22:33:58.266Z,7.85
2019-05-14T22:38:02.588Z,7.86
2019-05-14T22:42:09.234Z,7.83
2019-05-14T22:46:18.057Z,7.79
2019-05-14T22:50:22.178Z,7.78
2019-05-14T22:54:28.591Z,7.78
2019-05-14T22:58:32.340Z,7.77
2019-05-14T23:02:38.139Z,7.81
2019-05-14T23:06:42.716Z,7.80
2019-05-14T23:10:49.137Z,7.79
2019-05-14T23:14:53.493Z,7.77
2019-05-14T23:18:58.313Z,7.72
2019-05-14T23:23:02.991Z,7.72
2019-05-14T23:27:08.266Z,7.75
2019-05-14T23:31:12.783Z,7.70
2019-05-14T23:35:18.716Z,7.69
2019-05-14T23:39:23.891Z,7.68
2019-05-14T23:43:28.860Z,7.66
2019-05-14T23:47:33.251Z,7.69
2019-05-14T23:51:38.566Z,7.64
2019-05-14T23:55:42.985Z,7.65
2019-05-14T23:59:48.291Z,7.69
